createdAt,value
2023-02-05T00:01:32.536Z,-1.02
2023-02-05T00:03:59.494Z,-1.00
2023-02-05T00:06:26.536Z,-0.99
2023-02-05T00:08:53.788Z,-0.98
2023-02-05T00:11:21.384Z,-0.97
2023-02-05T00:13:48.816Z,-0.97
2023-02-05T00:16:18.077Z,-0.98
2023-02-05T00:18:45.375Z,-0.97
2023-02-05T00:21:13.408Z,-0.92
2023-02-05T00:23:41.242Z,-0.90
2023-02-05T00:26:10.165Z,-0.89
2023-02-05T00:28:38.247Z,-0.87
2023-02-05T00:31:10.356Z,-0.85
2023-02-05T00:33:38.122Z,-0.84
2023-02-05T00:36:05.586Z,-0.82
2023-02-05T00:38:32.862Z,-0.80
2023-02-05T00:40:59.824Z,-0.77
2023-02-05T00:43:26.879Z,-0.73
2023-02-05T00:45:54.146Z,-0.70
2023-02-05T00:48:21.206Z,-0.70
2023-02-05T00:50:49.234Z,-0.67
2023-02-05T00:53:17.111Z,-0.65
2023-02-05T00:55:44.406Z,-0.62
2023-02-05T00:58:11.828Z,-0.62
2023-02-05T01:00:39.012Z,-0.59
2023-02-05T01:03:06.073Z,-0.56
2023-02-05T01:05:36.299Z,-0.56
2023-02-05T01:08:04.873Z,-0.57
2023-02-05T01:10:32.135Z,-0.56
2023-02-05T01:12:59.656Z,-0.54
2023-02-05T01:15:26.833Z,-0.54
2023-02-05T01:17:54.088Z,-0.53
2023-02-05T01:20:21.511Z,-0.51
2023-02-05T01:22:49.124Z,-0.51
2023-02-05T01:25:16.882Z,-0.50
2023-02-05T01:27:45.201Z,-0.47
2023-02-05T01:30:14.269Z,-0.26
2023-02-05T01:32:42.586Z,-0.19
2023-02-05T01:35:09.713Z,-0.17
2023-02-05T01:37:37.069Z,-0.16
2023-02-05T01:40:08.339Z,-0.16
2023-02-05T01:42:37.514Z,-0.16
2023-02-05T01:45:32.966Z,-0.18
2023-02-05T01:48:02.000Z,-0.20
2023-02-05T01:50:29.271Z,-0.17
2023-02-05T01:52:59.177Z,-0.15
2023-02-05T01:55:26.748Z,-0.12
2023-02-05T01:57:54.552Z,-0.10
2023-02-05T02:00:23.101Z,-0.07
2023-02-05T02:02:50.469Z,-0.05
2023-02-05T02:05:18.809Z,-0.04
2023-02-05T02:07:46.202Z,-0.05
2023-02-05T02:10:14.501Z,-0.03
2023-02-05T02:12:41.869Z,-0.02
2023-02-05T02:15:17.914Z,-0.02
2023-02-05T02:17:46.703Z,-0.03
2023-02-05T02:20:15.837Z,-0.03
2023-02-05T02:23:08.850Z,-0.04
2023-02-05T02:26:04.704Z,-0.05
2023-02-05T02:28:51.049Z,-0.04
2023-02-05T02:31:19.262Z,-0.01
2023-02-05T02:33:48.434Z,0.01
2023-02-05T02:36:35.049Z,0.00
2023-02-05T02:39:06.887Z,-0.24
2023-02-05T02:41:49.219Z,-0.08
2023-02-05T02:45:06.987Z,-0.01
2023-02-05T02:47:38.544Z,-0.01
2023-02-05T02:50:19.782Z,0.01
2023-02-05T02:52:48.348Z,0.03
2023-02-05T02:55:15.478Z,0.04
2023-02-05T02:57:45.604Z,0.04
2023-02-05T03:00:14.321Z,0.03
2023-02-05T03:02:42.054Z,0.04
2023-02-05T03:05:11.253Z,0.05
2023-02-05T03:07:44.676Z,0.07
2023-02-05T03:10:19.953Z,0.07
2023-02-05T03:12:47.778Z,0.07
2023-02-05T03:15:14.971Z,0.09
2023-02-05T03:17:43.423Z,0.08
2023-02-05T03:20:27.703Z,0.07
2023-02-05T03:22:55.902Z,0.07
2023-02-05T03:25:22.982Z,0.08
2023-02-05T03:27:51.646Z,0.08
2023-02-05T03:30:18.879Z,0.07
2023-02-05T03:33:24.120Z,0.06
2023-02-05T03:36:12.166Z,0.06
2023-02-05T03:38:51.976Z,0.03
2023-02-05T03:41:56.077Z,0.03
2023-02-05T03:44:38.752Z,0.05
2023-02-05T03:47:16.655Z,0.03
2023-02-05T03:50:08.173Z,0.01
2023-02-05T03:52:37.634Z,0.03
2023-02-05T03:55:07.348Z,0.05
2023-02-05T03:57:49.153Z,0.05
2023-02-05T04:00:19.274Z,0.08
2023-02-05T04:02:46.657Z,0.09
2023-02-05T04:05:20.633Z,0.10
2023-02-05T04:07:49.390Z,0.12
2023-02-05T04:10:17.799Z,0.11
2023-02-05T04:12:46.704Z,0.13
2023-02-05T04:15:13.672Z,0.15
2023-02-05T04:17:43.848Z,0.16
2023-02-05T04:20:12.582Z,0.19
2023-02-05T04:22:39.599Z,0.20
2023-02-05T04:25:09.754Z,0.18
2023-02-05T04:27:36.618Z,0.17
2023-02-05T04:30:06.281Z,0.18
2023-02-05T04:32:34.854Z,0.19
2023-02-05T04:35:02.426Z,0.18
2023-02-05T04:37:29.689Z,0.19
2023-02-05T04:39:56.988Z,0.19
2023-02-05T04:42:24.136Z,0.21
2023-02-05T04:44:52.416Z,0.20
2023-02-05T04:47:19.584Z,0.19
2023-02-05T04:49:46.437Z,0.18
2023-02-05T04:52:13.487Z,0.17
2023-02-05T04:54:40.599Z,0.17
2023-02-05T04:57:07.616Z,0.19
2023-02-05T04:59:34.641Z,0.20
2023-02-05T05:02:01.876Z,0.21
2023-02-05T05:04:30.572Z,0.21
2023-02-05T05:06:58.896Z,0.22
2023-02-05T05:09:26.625Z,0.22
2023-02-05T05:11:54.522Z,0.23
2023-02-05T05:14:22.394Z,0.26
2023-02-05T05:16:53.277Z,0.29
2023-02-05T05:19:20.492Z,0.29
2023-02-05T05:21:47.636Z,0.32
2023-02-05T05:24:14.990Z,0.36
2023-02-05T05:26:44.578Z,0.39
2023-02-05T05:29:15.314Z,0.40
2023-02-05T05:31:44.776Z,0.41
2023-02-05T05:34:11.823Z,0.41
2023-02-05T05:36:43.044Z,0.43
2023-02-05T05:39:28.843Z,0.45
2023-02-05T05:42:14.424Z,0.48
2023-02-05T05:44:41.567Z,0.48
2023-02-05T05:47:08.497Z,0.49
2023-02-05T05:49:35.884Z,0.49
2023-02-05T05:52:02.852Z,0.50
2023-02-05T05:54:29.897Z,0.53
2023-02-05T05:56:56.702Z,0.58
2023-02-05T05:59:24.052Z,0.60
2023-02-05T06:01:52.163Z,0.61
2023-02-05T06:04:19.230Z,0.63
2023-02-05T06:06:46.053Z,0.65
2023-02-05T06:09:14.649Z,0.67
2023-02-05T06:11:41.459Z,0.71
2023-02-05T06:14:09.782Z,0.75
2023-02-05T06:16:38.844Z,0.78
2023-02-05T06:19:05.819Z,0.79
2023-02-05T06:21:33.794Z,0.79
2023-02-05T06:24:00.740Z,0.82
2023-02-05T06:26:28.596Z,0.82
2023-02-05T06:28:56.707Z,0.84
2023-02-05T06:31:23.795Z,0.86
2023-02-05T06:33:51.827Z,0.86
2023-02-05T06:36:18.645Z,0.85
2023-02-05T06:38:45.626Z,0.87
2023-02-05T06:41:14.197Z,0.88
2023-02-05T06:43:40.977Z,0.89
2023-02-05T06:46:08.011Z,0.89
2023-02-05T06:48:34.865Z,0.91
2023-02-05T06:51:01.930Z,0.94
2023-02-05T06:53:28.828Z,0.95
2023-02-05T06:55:59.281Z,0.97
2023-02-05T06:58:26.247Z,0.99
2023-02-05T07:00:53.305Z,1.01
2023-02-05T07:03:20.067Z,1.04
2023-02-05T07:05:47.528Z,1.08
2023-02-05T07:08:14.488Z,1.14
2023-02-05T07:10:41.309Z,1.19
2023-02-05T07:13:08.254Z,1.18
2023-02-05T07:15:37.132Z,1.20
2023-02-05T07:18:04.601Z,1.19
2023-02-05T07:20:33.053Z,1.20
2023-02-05T07:23:00.356Z,1.22
2023-02-05T07:25:27.683Z,1.26
2023-02-05T07:27:54.803Z,1.29
2023-02-05T07:30:21.778Z,1.33
2023-02-05T07:32:48.879Z,1.36
2023-02-05T07:35:16.894Z,1.41
2023-02-05T07:37:43.891Z,1.45
2023-02-05T07:40:12.106Z,1.46
2023-02-05T07:42:39.446Z,1.48
2023-02-05T07:45:08.325Z,1.50
2023-02-05T07:47:35.264Z,1.53
2023-02-05T07:50:02.126Z,1.56
2023-02-05T07:52:29.224Z,1.60
2023-02-05T07:54:55.994Z,1.64
2023-02-05T07:57:23.291Z,1.70
2023-02-05T07:59:50.212Z,1.77
2023-02-05T08:02:17.055Z,1.82
2023-02-05T08:04:44.117Z,1.85
2023-02-05T08:07:12.381Z,1.91
2023-02-05T08:09:39.426Z,1.99
2023-02-05T08:12:06.730Z,2.03
2023-02-05T08:14:36.782Z,2.00
2023-02-05T08:17:05.700Z,2.00
2023-02-05T08:19:33.052Z,2.04
2023-02-05T08:22:01.573Z,2.07
2023-02-05T08:24:28.716Z,2.07
2023-02-05T08:26:55.565Z,2.05
2023-02-05T08:29:22.621Z,2.04
2023-02-05T08:31:49.833Z,2.06
2023-02-05T08:34:19.849Z,2.00
2023-02-05T08:36:48.104Z,1.96
2023-02-05T08:39:14.971Z,1.96
2023-02-05T08:41:42.278Z,1.99
2023-02-05T08:44:09.480Z,2.00
2023-02-05T08:46:49.258Z,2.01
2023-02-05T08:49:17.046Z,2.03
2023-02-05T08:51:44.111Z,2.07
2023-02-05T08:56:54.924Z,2.17
2023-02-05T08:59:22.647Z,2.17
2023-02-05T09:01:50.963Z,2.17
2023-02-05T09:04:19.917Z,2.14
2023-02-05T09:06:46.720Z,2.15
2023-02-05T09:09:14.395Z,2.17
2023-02-05T09:11:46.103Z,2.17
2023-02-05T09:14:13.171Z,2.18
2023-02-05T09:16:40.926Z,2.23
2023-02-05T09:19:08.368Z,2.24
2023-02-05T09:21:38.646Z,2.11
2023-02-05T09:24:06.399Z,2.11
2023-02-05T09:26:35.435Z,2.12
2023-02-05T09:29:02.858Z,2.19
2023-02-05T09:31:33.741Z,2.28
2023-02-05T09:34:02.750Z,2.31
2023-02-05T09:36:29.882Z,2.33
2023-02-05T09:39:13.015Z,2.37
2023-02-05T09:42:05.009Z,2.45
2023-02-05T09:44:41.244Z,2.53
2023-02-05T09:47:16.804Z,2.56
2023-02-05T09:49:56.058Z,2.56
2023-02-05T09:52:26.870Z,2.55
2023-02-05T09:54:56.306Z,2.56
2023-02-05T09:57:50.309Z,2.55
2023-02-05T10:00:21.132Z,2.51
2023-02-05T10:03:27.690Z,2.47
2023-02-05T10:06:00.760Z,2.43
2023-02-05T10:08:41.261Z,2.44
2023-02-05T10:11:17.831Z,2.44
2023-02-05T10:13:47.012Z,2.42
2023-02-05T10:16:26.422Z,2.43
2023-02-05T10:19:20.448Z,2.49
2023-02-05T10:22:12.274Z,2.58
2023-02-05T10:25:00.955Z,2.59
2023-02-05T10:28:05.499Z,2.63
2023-02-05T10:30:58.446Z,2.71
2023-02-05T10:33:46.524Z,2.78
2023-02-05T10:36:13.890Z,2.83
2023-02-05T10:38:44.827Z,2.87
2023-02-05T10:41:14.511Z,2.93
2023-02-05T10:43:53.144Z,2.98
2023-02-05T10:46:20.028Z,2.99
2023-02-05T10:49:01.310Z,2.95
2023-02-05T10:51:46.553Z,2.97
2023-02-05T10:54:30.867Z,3.01
2023-02-05T10:56:58.393Z,2.98
2023-02-05T10:59:35.932Z,2.94
2023-02-05T11:02:06.198Z,2.89
2023-02-05T11:04:42.185Z,2.87
2023-02-05T11:07:13.254Z,2.89
2023-02-05T11:09:40.741Z,2.96
2023-02-05T11:12:29.186Z,3.01
2023-02-05T11:15:02.796Z,2.95
2023-02-05T11:17:37.685Z,2.96
2023-02-05T11:20:07.689Z,2.95
2023-02-05T11:22:40.097Z,2.99
2023-02-05T11:25:25.851Z,2.99
2023-02-05T11:27:57.238Z,2.99
2023-02-05T11:30:53.291Z,2.99
2023-02-05T11:33:25.057Z,3.06
2023-02-05T11:36:07.571Z,3.13
2023-02-05T11:38:56.758Z,3.17
2023-02-05T11:41:30.677Z,3.24
2023-02-05T11:43:59.670Z,3.26
2023-02-05T11:46:28.396Z,3.24
2023-02-05T11:49:02.157Z,3.19
2023-02-05T11:51:35.758Z,3.14
2023-02-05T11:54:31.120Z,3.11
2023-02-05T11:57:05.673Z,3.06
2023-02-05T11:59:34.421Z,3.05
2023-02-05T12:02:29.361Z,3.05
2023-02-05T12:05:22.505Z,3.05
2023-02-05T12:08:01.175Z,3.11
2023-02-05T12:10:43.168Z,3.15
2023-02-05T12:13:22.345Z,3.23
2023-02-05T12:16:11.735Z,3.33
2023-02-05T12:19:14.336Z,3.41
2023-02-05T12:21:56.748Z,3.48
2023-02-05T12:24:47.314Z,3.49
2023-02-05T12:27:53.725Z,3.43
2023-02-05T12:30:30.529Z,3.43
2023-02-05T12:33:28.562Z,3.50
2023-02-05T12:36:07.867Z,3.58
2023-02-05T12:38:42.479Z,3.62
2023-02-05T12:41:22.680Z,3.63
2023-02-05T12:43:49.689Z,3.61
2023-02-05T12:46:27.822Z,3.59
2023-02-05T12:49:05.324Z,3.56
2023-02-05T12:51:54.597Z,3.50
2023-02-05T12:54:24.514Z,3.43
2023-02-05T12:57:05.266Z,3.42
2023-02-05T12:59:45.939Z,3.44
2023-02-05T13:02:22.130Z,3.38
2023-02-05T13:04:51.434Z,3.30
2023-02-05T13:07:23.248Z,3.26
2023-02-05T13:09:55.114Z,3.25
2023-02-05T13:12:24.356Z,3.23
2023-02-05T13:15:15.304Z,3.20
2023-02-05T13:18:04.064Z,3.18
2023-02-05T13:21:01.188Z,3.17
2023-02-05T13:23:59.312Z,3.20
2023-02-05T13:26:56.179Z,3.21
2023-02-05T13:29:25.231Z,3.20
2023-02-05T13:31:54.686Z,3.19
2023-02-05T13:34:22.897Z,3.19
2023-02-05T13:37:12.681Z,3.14
2023-02-05T13:39:48.174Z,3.12
2023-02-05T13:42:36.639Z,3.12
2023-02-05T13:45:33.164Z,3.11
2023-02-05T13:48:12.493Z,3.09
2023-02-05T13:50:48.657Z,3.09
2023-02-05T13:53:32.418Z,3.09
2023-02-05T13:56:15.262Z,3.06
2023-02-05T13:58:45.735Z,3.03
2023-02-05T14:01:28.984Z,2.99
2023-02-05T14:03:59.773Z,2.96
2023-02-05T14:06:29.860Z,2.94
2023-02-05T14:09:03.089Z,2.95
2023-02-05T14:12:03.032Z,2.93
2023-02-05T14:14:34.453Z,2.91
2023-02-05T14:17:32.737Z,2.90
2023-02-05T14:20:14.728Z,2.89
2023-02-05T14:22:43.004Z,2.89
2023-02-05T14:25:35.162Z,2.86
2023-02-05T14:28:28.199Z,2.81
2023-02-05T14:30:59.037Z,2.78
2023-02-05T14:33:37.162Z,2.76
2023-02-05T14:36:22.600Z,2.73
2023-02-05T14:38:54.914Z,2.68
2023-02-05T14:41:31.161Z,2.66
2023-02-05T14:44:05.430Z,2.68
2023-02-05T14:46:42.923Z,2.66
2023-02-05T14:49:41.146Z,2.61
2023-02-05T14:52:36.780Z,2.58
2023-02-05T14:55:31.140Z,2.55
2023-02-05T14:58:03.667Z,2.56
2023-02-05T15:00:32.231Z,2.55
2023-02-05T15:03:05.469Z,2.52
2023-02-05T15:05:58.523Z,2.47
2023-02-05T15:08:48.742Z,2.43
2023-02-05T15:11:43.130Z,2.43
2023-02-05T15:14:22.155Z,2.43
2023-02-05T15:17:04.570Z,2.41
2023-02-05T15:19:33.298Z,2.36
2023-02-05T15:22:00.326Z,2.31
2023-02-05T15:24:27.543Z,2.30
2023-02-05T15:27:03.261Z,2.30
2023-02-05T15:29:34.752Z,2.31
2023-02-05T15:32:26.126Z,2.31
2023-02-05T15:35:21.752Z,2.32
2023-02-05T15:37:50.882Z,2.33
2023-02-05T15:40:32.036Z,2.33
2023-02-05T15:43:00.321Z,2.31
2023-02-05T15:45:28.675Z,2.31
2023-02-05T15:48:02.992Z,2.31
2023-02-05T15:50:30.682Z,2.32
2023-02-05T15:52:57.964Z,2.32
2023-02-05T15:55:27.153Z,2.34
2023-02-05T15:57:58.889Z,2.35
2023-02-05T16:00:28.412Z,2.33
2023-02-05T16:03:02.338Z,2.32
2023-02-05T16:05:30.702Z,2.30
2023-02-05T16:07:58.469Z,2.27
2023-02-05T16:10:30.052Z,2.21
2023-02-05T16:13:28.679Z,2.19
2023-02-05T16:16:17.604Z,2.21
2023-02-05T16:18:48.971Z,2.22
2023-02-05T16:21:23.580Z,2.23
2023-02-05T16:23:56.782Z,2.21
2023-02-05T16:26:39.644Z,2.21
2023-02-05T16:29:11.668Z,2.23
2023-02-05T16:31:47.139Z,2.24
2023-02-05T16:34:17.360Z,2.23
2023-02-05T16:36:47.613Z,2.20
2023-02-05T16:39:32.004Z,2.18
2023-02-05T16:42:04.743Z,2.23
2023-02-05T16:44:35.124Z,2.25
2023-02-05T16:47:16.338Z,2.26
2023-02-05T16:49:45.213Z,2.28
2023-02-05T16:52:35.195Z,2.28
2023-02-05T16:55:14.487Z,2.26
2023-02-05T16:57:41.802Z,2.26
2023-02-05T17:00:27.425Z,2.27
2023-02-05T17:02:57.157Z,2.28
2023-02-05T17:05:35.143Z,2.32
2023-02-05T17:08:07.799Z,2.32
2023-02-05T17:10:54.872Z,2.29
2023-02-05T17:13:41.580Z,2.30
2023-02-05T17:16:31.237Z,2.30
2023-02-05T17:18:59.570Z,2.31
2023-02-05T17:21:33.853Z,2.33
2023-02-05T17:24:02.562Z,2.33
2023-02-05T17:26:32.390Z,2.33
2023-02-05T17:29:01.355Z,2.29
2023-02-05T17:31:36.222Z,2.23
2023-02-05T17:34:03.286Z,2.15
2023-02-05T17:36:30.224Z,2.11
2023-02-05T17:38:57.036Z,2.03
2023-02-05T17:41:46.751Z,1.94
2023-02-05T17:44:15.431Z,1.91
2023-02-05T17:46:43.156Z,1.90
2023-02-05T17:49:10.450Z,1.86
2023-02-05T17:51:42.164Z,1.81
2023-02-05T17:54:16.628Z,1.79
2023-02-05T17:56:44.289Z,1.78
2023-02-05T17:59:12.702Z,1.76
2023-02-05T18:01:40.211Z,1.70
2023-02-05T18:04:07.273Z,1.63
2023-02-05T18:06:35.921Z,1.58
2023-02-05T18:09:03.229Z,1.55
2023-02-05T18:11:33.442Z,1.57
2023-02-05T18:14:01.432Z,1.59
2023-02-05T18:16:29.105Z,1.63
2023-02-05T18:18:56.078Z,1.65
2023-02-05T18:21:24.213Z,1.63
2023-02-05T18:23:54.352Z,1.66
2023-02-05T18:26:21.439Z,1.76
2023-02-05T18:28:49.670Z,1.67
2023-02-05T18:31:16.856Z,1.62
2023-02-05T18:33:45.841Z,1.64
2023-02-05T18:36:13.322Z,1.61
2023-02-05T18:38:42.676Z,1.62
2023-02-05T18:41:17.622Z,1.63
2023-02-05T18:43:44.997Z,1.65
2023-02-05T18:46:13.851Z,1.65
2023-02-05T18:48:41.031Z,1.64
2023-02-05T18:51:11.466Z,1.63
2023-02-05T18:53:42.683Z,1.60
2023-02-05T18:56:15.798Z,1.59
2023-02-05T18:58:43.914Z,1.56
2023-02-05T19:01:12.536Z,1.55
2023-02-05T19:03:41.026Z,1.54
2023-02-05T19:06:09.812Z,1.56
2023-02-05T19:08:37.292Z,1.60
2023-02-05T19:11:11.018Z,1.64
2023-02-05T19:13:38.114Z,1.67
2023-02-05T19:16:12.270Z,1.66
2023-02-05T19:18:40.456Z,1.66
2023-02-05T19:21:10.425Z,1.68
2023-02-05T19:23:39.304Z,1.69
2023-02-05T19:26:08.587Z,1.70
2023-02-05T19:28:35.921Z,1.70
2023-02-05T19:31:04.300Z,1.72
2023-02-05T19:33:32.301Z,1.75
2023-02-05T19:36:00.120Z,1.75
2023-02-05T19:38:27.191Z,1.76
2023-02-05T19:40:54.251Z,1.76
2023-02-05T19:43:22.143Z,1.74
2023-02-05T19:45:49.032Z,1.74
2023-02-05T19:48:17.561Z,1.76
2023-02-05T19:50:44.838Z,1.78
2023-02-05T19:53:13.692Z,1.78
2023-02-05T19:55:41.092Z,1.78
2023-02-05T19:58:08.512Z,1.79
2023-02-05T20:00:35.937Z,1.79
2023-02-05T20:03:03.355Z,1.80
2023-02-05T20:05:30.305Z,1.79
2023-02-05T20:07:58.121Z,1.77
2023-02-05T20:10:25.226Z,1.77
2023-02-05T20:12:52.943Z,1.77
2023-02-05T20:15:20.301Z,1.75
2023-02-05T20:17:48.735Z,1.75
2023-02-05T20:20:32.671Z,1.76
2023-02-05T20:23:00.333Z,1.79
2023-02-05T20:25:27.135Z,1.81
2023-02-05T20:27:55.933Z,1.81
2023-02-05T20:30:42.108Z,1.80
2023-02-05T20:33:09.076Z,1.78
2023-02-05T20:35:36.926Z,1.78
2023-02-05T20:38:03.979Z,1.77
2023-02-05T20:40:31.251Z,1.77
2023-02-05T20:42:59.376Z,1.77
2023-02-05T20:45:26.618Z,1.79
2023-02-05T20:47:53.637Z,1.81
2023-02-05T20:50:20.698Z,1.79
2023-02-05T20:52:48.087Z,1.79
2023-02-05T20:55:15.262Z,1.79
2023-02-05T20:57:45.487Z,1.80
2023-02-05T21:00:13.223Z,1.81
2023-02-05T21:02:41.565Z,1.81
2023-02-05T21:05:08.608Z,1.83
2023-02-05T21:07:41.213Z,1.85
2023-02-05T21:10:09.812Z,1.89
2023-02-05T21:12:36.802Z,1.91
2023-02-05T21:15:08.151Z,1.91
2023-02-05T21:17:39.532Z,1.91
2023-02-05T21:20:07.098Z,1.92
2023-02-05T21:22:34.511Z,1.94
2023-02-05T21:25:01.619Z,1.94
2023-02-05T21:27:28.954Z,1.93
2023-02-05T21:29:55.874Z,1.89
2023-02-05T21:32:22.843Z,1.85
2023-02-05T21:34:49.944Z,1.83
2023-02-05T21:37:17.050Z,1.83
2023-02-05T21:39:45.049Z,1.81
2023-02-05T21:42:12.036Z,1.80
2023-02-05T21:44:39.460Z,1.80
2023-02-05T21:47:06.391Z,1.81
2023-02-05T21:49:38.306Z,1.81
2023-02-05T21:52:05.298Z,1.78
2023-02-05T21:54:32.844Z,1.74
2023-02-05T21:56:59.814Z,1.74
2023-02-05T21:59:26.738Z,1.74
2023-02-05T22:01:53.834Z,1.73
2023-02-05T22:04:20.785Z,1.75
2023-02-05T22:06:47.895Z,1.78
2023-02-05T22:09:16.149Z,1.78
2023-02-05T22:11:43.659Z,1.77
2023-02-05T22:14:10.657Z,1.76
2023-02-05T22:16:37.652Z,1.76
2023-02-05T22:19:06.302Z,1.74
2023-02-05T22:21:40.425Z,1.74
2023-02-05T22:24:07.957Z,1.73
2023-02-05T22:26:36.966Z,1.77
2023-02-05T22:29:05.812Z,1.78
2023-02-05T22:31:33.678Z,1.78
2023-02-05T22:34:02.215Z,1.78
2023-02-05T22:36:30.464Z,1.78
2023-02-05T22:38:58.838Z,1.77
2023-02-05T22:41:28.521Z,1.77
2023-02-05T22:43:56.147Z,1.77
2023-02-05T22:46:27.668Z,1.77
2023-02-05T22:48:54.899Z,1.78
2023-02-05T22:51:24.872Z,1.77
2023-02-05T22:53:54.273Z,1.77
2023-02-05T22:56:21.932Z,1.75
2023-02-05T22:58:49.648Z,1.75
2023-02-05T23:01:28.135Z,1.74
2023-02-05T23:03:56.134Z,1.74
2023-02-05T23:06:30.769Z,1.71
2023-02-05T23:09:02.814Z,1.70
2023-02-05T23:11:32.097Z,1.64
2023-02-05T23:14:03.005Z,1.59
2023-02-05T23:16:32.199Z,1.56
2023-02-05T23:19:01.143Z,1.56
2023-02-05T23:21:29.259Z,1.56
2023-02-05T23:23:57.006Z,1.54
2023-02-05T23:26:28.463Z,1.58
2023-02-05T23:28:55.762Z,1.60
2023-02-05T23:31:23.513Z,1.59
2023-02-05T23:33:50.963Z,1.60
2023-02-05T23:36:17.802Z,1.60
2023-02-05T23:38:44.681Z,1.58
2023-02-05T23:41:11.897Z,1.60
2023-02-05T23:43:42.210Z,1.60
2023-02-05T23:46:09.199Z,1.62
2023-02-05T23:48:41.318Z,1.68
2023-02-05T23:51:08.262Z,1.76
2023-02-05T23:53:35.476Z,1.78
2023-02-05T23:56:02.947Z,1.81
2023-02-05T23:58:30.247Z,1.87
